createdAt,value
2019-03-06T17:55:14.086Z,63.45
2019-03-06T17:57:47.237Z,65.12
2019-03-06T18:00:29.907Z,51.18
2019-03-06T18:12:46.391Z,6.35
2019-03-06T18:15:17.210Z,5.10
2019-03-06T18:17:47.961Z,4.55
2019-03-06T18:20:19.068Z,4.78
2019-03-06T18:22:51.958Z,4.40
2019-03-06T18:25:26.710Z,4.47
2019-03-06T18:28:03.556Z,5.00
2019-03-06T18:30:34.727Z,15.43
2019-03-06T18:33:05.591Z,4.75
2019-03-06T18:35:36.586Z,4.87
2019-03-06T18:38:07.139Z,5.33
2019-03-06T18:40:38.513Z,5.20
2019-03-06T18:43:12.299Z,5.47
2019-03-06T18:45:43.386Z,7.08
2019-03-06T18:48:14.188Z,5.75
2019-03-06T18:50:49.971Z,5.53
2019-03-06T18:53:20.730Z,4.97
2019-03-06T18:55:51.720Z,5.15
2019-03-06T18:58:22.644Z,5.40
2019-03-06T19:00:53.201Z,6.17
2019-03-06T19:03:23.899Z,4.58
2019-03-06T19:05:54.846Z,5.87
2019-03-06T19:08:31.325Z,6.90
2019-03-06T19:11:01.409Z,5.75
2019-03-06T19:13:51.561Z,6.10
2019-03-06T19:16:24.438Z,9.55
2019-03-06T19:18:58.593Z,7.15
2019-03-06T19:21:30.077Z,5.78
2019-03-06T19:24:01.660Z,5.53
2019-03-06T19:26:33.759Z,5.35
2019-03-06T19:29:05.522Z,6.03
2019-03-06T19:31:37.412Z,5.60
2019-03-06T19:34:08.858Z,6.70
2019-03-06T19:36:39.622Z,5.60
2019-03-06T19:39:11.319Z,5.70
2019-03-06T19:41:42.806Z,7.30
2019-03-06T19:44:13.390Z,5.80
2019-03-06T19:46:46.988Z,5.90
2019-03-06T19:49:18.529Z,6.45
2019-03-06T19:51:53.232Z,6.53
2019-03-06T19:54:28.359Z,5.60
2019-03-06T19:56:59.159Z,7.03
2019-03-06T19:59:30.262Z,9.75
2019-03-06T20:02:00.918Z,6.83
2019-03-06T20:04:32.617Z,7.30
2019-03-06T20:07:04.387Z,7.37
2019-03-06T20:09:35.467Z,10.17
2019-03-06T20:12:08.573Z,7.70
2019-03-06T20:14:39.662Z,7.15
2019-03-06T20:17:10.839Z,7.05
2019-03-06T20:19:41.788Z,7.30
2019-03-06T20:22:15.060Z,6.92
2019-03-06T20:24:45.752Z,6.90
2019-03-06T20:27:16.377Z,7.62
2019-03-06T20:29:47.133Z,18.77
2019-03-06T20:32:18.869Z,23.77
2019-03-06T20:34:49.557Z,30.25
2019-03-06T20:37:21.601Z,24.47
2019-03-06T20:39:52.777Z,17.87
2019-03-06T20:42:24.146Z,20.05
2019-03-06T20:44:55.849Z,12.80
2019-03-06T20:47:26.713Z,11.93
2019-03-06T20:49:57.314Z,11.13
2019-03-06T20:52:28.123Z,8.53
2019-03-06T20:54:59.171Z,9.70
2019-03-06T20:57:31.334Z,9.68
2019-03-06T21:00:01.984Z,7.87
2019-03-06T21:02:32.910Z,7.42
2019-03-06T21:05:04.122Z,8.28
2019-03-06T21:07:44.642Z,7.60
2019-03-06T21:10:07.547Z,8.18
2019-03-06T21:12:39.789Z,7.50
2019-03-06T21:15:14.919Z,7.60
2019-03-06T21:17:45.195Z,7.50
2019-03-06T21:20:17.543Z,8.17
2019-03-06T21:22:50.615Z,8.83
2019-03-06T21:25:21.567Z,7.80
2019-03-06T21:27:55.635Z,7.40
2019-03-06T21:30:35.789Z,7.47
2019-03-06T21:33:06.422Z,7.22
2019-03-06T21:35:37.111Z,7.20
2019-03-06T21:38:07.682Z,8.25
2019-03-06T21:40:41.520Z,7.57
2019-03-06T21:43:12.328Z,7.15
2019-03-06T21:45:43.011Z,7.15
2019-03-06T21:48:14.094Z,7.62
2019-03-06T21:50:45.011Z,7.65
2019-03-06T21:53:16.407Z,7.40
2019-03-06T21:55:49.273Z,7.42
2019-03-06T21:58:19.885Z,8.85
2019-03-06T22:00:50.349Z,8.50
2019-03-06T22:03:20.971Z,7.50
2019-03-06T22:05:51.802Z,7.37
2019-03-06T22:08:23.297Z,8.60
2019-03-06T22:10:55.005Z,17.62
2019-03-06T22:13:28.185Z,7.67
2019-03-06T22:15:59.740Z,7.30
2019-03-06T22:18:33.229Z,7.42
2019-03-06T22:21:04.109Z,7.78
2019-03-06T22:23:34.710Z,7.42
2019-03-06T22:26:05.372Z,7.90
2019-03-06T22:28:36.415Z,8.00
2019-03-06T22:31:06.916Z,7.55
2019-03-06T22:33:39.723Z,7.35
2019-03-06T22:36:12.099Z,7.83
2019-03-06T22:38:43.050Z,8.10
2019-03-06T22:41:15.518Z,7.50
2019-03-06T22:43:46.129Z,7.70
2019-03-06T22:46:17.051Z,7.90
2019-03-06T22:48:49.732Z,7.70
2019-03-06T22:51:21.119Z,7.40
2019-03-06T22:53:51.557Z,7.95
2019-03-06T22:56:22.181Z,7.92
2019-03-06T22:58:52.823Z,7.62
2019-03-06T23:01:35.401Z,7.37
2019-03-06T23:04:09.802Z,7.72
2019-03-06T23:06:40.340Z,11.20
2019-03-06T23:09:12.030Z,8.60
2019-03-06T23:11:44.808Z,8.05
2019-03-06T23:14:19.829Z,7.58
2019-03-06T23:16:50.968Z,7.45
2019-03-06T23:19:21.597Z,7.80
2019-03-06T23:21:54.096Z,7.62
2019-03-06T23:24:25.203Z,7.30
2019-03-06T23:26:55.786Z,7.12
2019-03-06T23:29:27.849Z,7.53
2019-03-06T23:31:59.170Z,7.17
2019-03-06T23:34:30.022Z,6.97
2019-03-06T23:37:00.530Z,7.72
2019-03-06T23:39:31.200Z,6.90
2019-03-06T23:42:02.446Z,7.20
2019-03-06T23:44:33.377Z,7.87
2019-03-06T23:47:04.440Z,7.25
2019-03-06T23:49:37.043Z,6.87
2019-03-06T23:52:13.760Z,7.65
2019-03-06T23:54:45.645Z,7.10
2019-03-06T23:57:16.264Z,8.10
2019-03-06T23:59:47.339Z,7.20
